sensor_id;sensor_type;location;lat;lon;timestamp;P1;durP1;ratioP1;P2;durP2;ratioP2
70920;SDS011;58572;48.110;19.838;2023-12-20T00:01:14;26.20;;;10.00;;
70920;SDS011;58572;48.110;19.838;2023-12-20T00:03:42;29.77;;;11.30;;
70920;SDS011;58572;48.110;19.838;2023-12-20T00:06:09;24.65;;;9.55;;
70920;SDS011;58572;48.110;19.838;2023-12-20T00:08:37;20.20;;;7.97;;
70920;SDS011;58572;48.110;19.838;2023-12-20T00:11:04;25.23;;;10.38;;
70920;SDS011;58572;48.110;19.838;2023-12-20T00:13:33;25.83;;;9.30;;
70920;SDS011;58572;48.110;19.838;2023-12-20T00:15:59;24.38;;;9.68;;
70920;SDS011;58572;48.110;19.838;2023-12-20T00:18:26;24.65;;;8.55;;
70920;SDS011;58572;48.110;19.838;2023-12-20T00:20:53;26.75;;;10.18;;
70920;SDS011;58572;48.110;19.838;2023-12-20T00:23:20;23.33;;;9.32;;
70920;SDS011;58572;48.110;19.838;2023-12-20T00:28:15;22.02;;;9.23;;
70920;SDS011;58572;48.110;19.838;2023-12-20T00:30:43;20.02;;;8.88;;
70920;SDS011;58572;48.110;19.838;2023-12-20T00:33:10;26.50;;;10.68;;
70920;SDS011;58572;48.110;19.838;2023-12-20T00:35:37;22.45;;;9.15;;
70920;SDS011;58572;48.110;19.838;2023-12-20T00:38:04;25.08;;;10.35;;
70920;SDS011;58572;48.110;19.838;2023-12-20T00:40:32;26.45;;;9.90;;
70920;SDS011;58572;48.110;19.838;2023-12-20T00:42:59;23.00;;;10.07;;
70920;SDS011;58572;48.110;19.838;2023-12-20T00:45:26;21.77;;;9.23;;
70920;SDS011;58572;48.110;19.838;2023-12-20T00:47:55;22.40;;;9.85;;
70920;SDS011;58572;48.110;19.838;2023-12-20T00:50:22;24.25;;;10.15;;
70920;SDS011;58572;48.110;19.838;2023-12-20T00:52:49;25.05;;;10.75;;
70920;SDS011;58572;48.110;19.838;2023-12-20T00:55:16;24.42;;;10.50;;
70920;SDS011;58572;48.110;19.838;2023-12-20T00:57:43;23.55;;;10.43;;
70920;SDS011;58572;48.110;19.838;2023-12-20T01:00:11;22.85;;;9.25;;
70920;SDS011;58572;48.110;19.838;2023-12-20T01:02:38;23.50;;;9.70;;
70920;SDS011;58572;48.110;19.838;2023-12-20T01:05:07;25.90;;;9.93;;
70920;SDS011;58572;48.110;19.838;2023-12-20T01:07:34;24.00;;;9.23;;
70920;SDS011;58572;48.110;19.838;2023-12-20T01:10:02;30.73;;;10.88;;
70920;SDS011;58572;48.110;19.838;2023-12-20T01:12:29;20.40;;;9.02;;
70920;SDS011;58572;48.110;19.838;2023-12-20T01:14:56;21.65;;;9.18;;
70920;SDS011;58572;48.110;19.838;2023-12-20T01:17:23;23.05;;;8.40;;
70920;SDS011;58572;48.110;19.838;2023-12-20T01:19:50;19.92;;;9.38;;
70920;SDS011;58572;48.110;19.838;2023-12-20T01:22:19;21.40;;;8.65;;
70920;SDS011;58572;48.110;19.838;2023-12-20T01:24:46;22.40;;;10.15;;
70920;SDS011;58572;48.110;19.838;2023-12-20T01:27:13;26.48;;;10.65;;
70920;SDS011;58572;48.110;19.838;2023-12-20T01:29:40;23.05;;;10.68;;
70920;SDS011;58572;48.110;19.838;2023-12-20T01:32:07;20.70;;;9.30;;
70920;SDS011;58572;48.110;19.838;2023-12-20T01:34:34;25.35;;;9.90;;
70920;SDS011;58572;48.110;19.838;2023-12-20T01:37:02;19.38;;;9.38;;
70920;SDS011;58572;48.110;19.838;2023-12-20T01:39:30;20.35;;;9.63;;
70920;SDS011;58572;48.110;19.838;2023-12-20T01:41:57;19.55;;;8.55;;
70920;SDS011;58572;48.110;19.838;2023-12-20T01:44:24;22.52;;;9.73;;
70920;SDS011;58572;48.110;19.838;2023-12-20T01:46:52;26.38;;;9.93;;
70920;SDS011;58572;48.110;19.838;2023-12-20T01:49:19;22.90;;;8.90;;
70920;SDS011;58572;48.110;19.838;2023-12-20T01:51:47;25.42;;;10.25;;
70920;SDS011;58572;48.110;19.838;2023-12-20T01:54:14;25.00;;;8.68;;
70920;SDS011;58572;48.110;19.838;2023-12-20T01:56:43;24.85;;;9.68;;
70920;SDS011;58572;48.110;19.838;2023-12-20T01:59:10;23.77;;;9.63;;
70920;SDS011;58572;48.110;19.838;2023-12-20T02:01:38;21.77;;;9.43;;
70920;SDS011;58572;48.110;19.838;2023-12-20T02:04:05;23.17;;;9.80;;
70920;SDS011;58572;48.110;19.838;2023-12-20T02:06:33;32.30;;;12.35;;
70920;SDS011;58572;48.110;19.838;2023-12-20T02:09:00;26.23;;;10.55;;
70920;SDS011;58572;48.110;19.838;2023-12-20T02:11:28;24.67;;;10.38;;
70920;SDS011;58572;48.110;19.838;2023-12-20T02:13:57;26.15;;;11.80;;
70920;SDS011;58572;48.110;19.838;2023-12-20T02:16:24;31.38;;;12.25;;
70920;SDS011;58572;48.110;19.838;2023-12-20T02:18:51;28.42;;;11.32;;
70920;SDS011;58572;48.110;19.838;2023-12-20T02:21:18;29.35;;;12.50;;
70920;SDS011;58572;48.110;19.838;2023-12-20T02:23:51;29.13;;;11.23;;
70920;SDS011;58572;48.110;19.838;2023-12-20T02:26:18;25.90;;;11.80;;
70920;SDS011;58572;48.110;19.838;2023-12-20T02:28:45;25.20;;;11.60;;
70920;SDS011;58572;48.110;19.838;2023-12-20T02:31:13;26.90;;;10.13;;
70920;SDS011;58572;48.110;19.838;2023-12-20T02:33:40;29.83;;;11.68;;
70920;SDS011;58572;48.110;19.838;2023-12-20T02:36:07;29.08;;;11.23;;
70920;SDS011;58572;48.110;19.838;2023-12-20T02:38:36;33.90;;;12.18;;
70920;SDS011;58572;48.110;19.838;2023-12-20T02:41:03;26.15;;;10.18;;
70920;SDS011;58572;48.110;19.838;2023-12-20T02:43:30;27.08;;;11.45;;
70920;SDS011;58572;48.110;19.838;2023-12-20T02:45:57;30.45;;;11.77;;
70920;SDS011;58572;48.110;19.838;2023-12-20T02:48:24;34.92;;;12.65;;
70920;SDS011;58572;48.110;19.838;2023-12-20T02:50:51;31.08;;;13.65;;
70920;SDS011;58572;48.110;19.838;2023-12-20T02:53:19;35.05;;;12.90;;
70920;SDS011;58572;48.110;19.838;2023-12-20T02:55:47;41.03;;;14.50;;
70920;SDS011;58572;48.110;19.838;2023-12-20T02:58:14;37.22;;;14.57;;
70920;SDS011;58572;48.110;19.838;2023-12-20T03:00:42;34.28;;;12.82;;
70920;SDS011;58572;48.110;19.838;2023-12-20T03:03:10;30.98;;;12.68;;
70920;SDS011;58572;48.110;19.838;2023-12-20T03:05:36;38.30;;;14.88;;
70920;SDS011;58572;48.110;19.838;2023-12-20T03:08:03;34.65;;;13.43;;
70920;SDS011;58572;48.110;19.838;2023-12-20T03:10:30;40.50;;;14.15;;
70920;SDS011;58572;48.110;19.838;2023-12-20T03:12:59;33.65;;;13.52;;
70920;SDS011;58572;48.110;19.838;2023-12-20T03:15:26;36.97;;;12.73;;
70920;SDS011;58572;48.110;19.838;2023-12-20T03:17:53;37.08;;;12.80;;
70920;SDS011;58572;48.110;19.838;2023-12-20T03:20:20;35.90;;;13.15;;
70920;SDS011;58572;48.110;19.838;2023-12-20T03:22:47;37.03;;;14.40;;
70920;SDS011;58572;48.110;19.838;2023-12-20T03:25:14;37.72;;;13.85;;
70920;SDS011;58572;48.110;19.838;2023-12-20T03:27:42;38.45;;;14.63;;
70920;SDS011;58572;48.110;19.838;2023-12-20T03:30:10;42.10;;;15.40;;
70920;SDS011;58572;48.110;19.838;2023-12-20T03:32:38;41.40;;;14.32;;
70920;SDS011;58572;48.110;19.838;2023-12-20T03:35:05;31.08;;;12.82;;
70920;SDS011;58572;48.110;19.838;2023-12-20T03:37:32;36.63;;;14.00;;
70920;SDS011;58572;48.110;19.838;2023-12-20T03:39:59;29.85;;;13.25;;
70920;SDS011;58572;48.110;19.838;2023-12-20T03:42:27;35.72;;;13.70;;
70920;SDS011;58572;48.110;19.838;2023-12-20T03:44:54;36.65;;;13.02;;
70920;SDS011;58572;48.110;19.838;2023-12-20T03:47:22;34.13;;;12.68;;
70920;SDS011;58572;48.110;19.838;2023-12-20T03:49:49;35.38;;;13.43;;
70920;SDS011;58572;48.110;19.838;2023-12-20T03:52:17;38.22;;;15.25;;
70920;SDS011;58572;48.110;19.838;2023-12-20T03:54:44;41.30;;;14.85;;
70920;SDS011;58572;48.110;19.838;2023-12-20T03:57:11;41.45;;;14.20;;
70920;SDS011;58572;48.110;19.838;2023-12-20T03:59:38;48.45;;;14.13;;
70920;SDS011;58572;48.110;19.838;2023-12-20T04:02:06;34.10;;;12.30;;
70920;SDS011;58572;48.110;19.838;2023-12-20T04:04:34;44.15;;;16.25;;
70920;SDS011;58572;48.110;19.838;2023-12-20T04:07:01;32.55;;;13.43;;
70920;SDS011;58572;48.110;19.838;2023-12-20T04:09:28;39.83;;;13.63;;
70920;SDS011;58572;48.110;19.838;2023-12-20T04:11:55;33.13;;;13.18;;
70920;SDS011;58572;48.110;19.838;2023-12-20T04:14:22;34.28;;;12.38;;
70920;SDS011;58572;48.110;19.838;2023-12-20T04:16:50;38.22;;;14.80;;
70920;SDS011;58572;48.110;19.838;2023-12-20T04:19:17;37.05;;;14.52;;
70920;SDS011;58572;48.110;19.838;2023-12-20T04:21:46;34.05;;;13.40;;
70920;SDS011;58572;48.110;19.838;2023-12-20T04:24:13;30.60;;;12.75;;
70920;SDS011;58572;48.110;19.838;2023-12-20T04:26:40;45.83;;;14.63;;
70920;SDS011;58572;48.110;19.838;2023-12-20T04:29:07;33.00;;;13.45;;
70920;SDS011;58572;48.110;19.838;2023-12-20T04:31:34;32.38;;;14.02;;
70920;SDS011;58572;48.110;19.838;2023-12-20T04:34:01;38.38;;;13.90;;
70920;SDS011;58572;48.110;19.838;2023-12-20T04:36:28;35.35;;;13.77;;
70920;SDS011;58572;48.110;19.838;2023-12-20T04:38:57;34.03;;;13.32;;
70920;SDS011;58572;48.110;19.838;2023-12-20T04:41:25;34.92;;;14.40;;
70920;SDS011;58572;48.110;19.838;2023-12-20T04:43:52;44.10;;;17.25;;
70920;SDS011;58572;48.110;19.838;2023-12-20T04:46:20;43.05;;;16.60;;
70920;SDS011;58572;48.110;19.838;2023-12-20T04:48:47;46.58;;;16.15;;
70920;SDS011;58572;48.110;19.838;2023-12-20T04:51:14;44.22;;;16.67;;
70920;SDS011;58572;48.110;19.838;2023-12-20T04:53:41;37.35;;;15.85;;
70920;SDS011;58572;48.110;19.838;2023-12-20T04:56:10;48.17;;;17.08;;
70920;SDS011;58572;48.110;19.838;2023-12-20T04:58:37;38.33;;;15.30;;
70920;SDS011;58572;48.110;19.838;2023-12-20T05:01:04;47.72;;;19.23;;
70920;SDS011;58572;48.110;19.838;2023-12-20T05:03:32;45.40;;;15.95;;
70920;SDS011;58572;48.110;19.838;2023-12-20T05:05:59;44.38;;;16.63;;
70920;SDS011;58572;48.110;19.838;2023-12-20T05:08:26;51.83;;;17.58;;
70920;SDS011;58572;48.110;19.838;2023-12-20T05:10:54;50.17;;;17.98;;
70920;SDS011;58572;48.110;19.838;2023-12-20T05:13:23;40.97;;;15.80;;
70920;SDS011;58572;48.110;19.838;2023-12-20T05:15:50;41.70;;;16.42;;
70920;SDS011;58572;48.110;19.838;2023-12-20T05:18:17;40.53;;;16.27;;
70920;SDS011;58572;48.110;19.838;2023-12-20T05:20:44;49.33;;;16.63;;
70920;SDS011;58572;48.110;19.838;2023-12-20T05:23:11;44.30;;;17.00;;
70920;SDS011;58572;48.110;19.838;2023-12-20T05:25:39;39.95;;;14.52;;
70920;SDS011;58572;48.110;19.838;2023-12-20T05:28:07;46.80;;;15.95;;
70920;SDS011;58572;48.110;19.838;2023-12-20T05:30:36;40.85;;;16.67;;
70920;SDS011;58572;48.110;19.838;2023-12-20T05:33:03;49.40;;;16.83;;
70920;SDS011;58572;48.110;19.838;2023-12-20T05:35:30;44.58;;;15.27;;
70920;SDS011;58572;48.110;19.838;2023-12-20T05:37:57;73.82;;;17.42;;
70920;SDS011;58572;48.110;19.838;2023-12-20T05:40:27;57.97;;;17.00;;
70920;SDS011;58572;48.110;19.838;2023-12-20T05:42:54;44.97;;;16.13;;
70920;SDS011;58572;48.110;19.838;2023-12-20T05:45:21;43.15;;;16.38;;
70920;SDS011;58572;48.110;19.838;2023-12-20T05:47:49;41.33;;;15.90;;
70920;SDS011;58572;48.110;19.838;2023-12-20T05:50:17;44.42;;;16.23;;
70920;SDS011;58572;48.110;19.838;2023-12-20T05:52:44;37.78;;;15.15;;
70920;SDS011;58572;48.110;19.838;2023-12-20T05:55:11;49.58;;;18.08;;
70920;SDS011;58572;48.110;19.838;2023-12-20T05:57:38;43.08;;;18.65;;
70920;SDS011;58572;48.110;19.838;2023-12-20T06:00:05;46.58;;;17.02;;
70920;SDS011;58572;48.110;19.838;2023-12-20T06:02:34;41.42;;;17.73;;
70920;SDS011;58572;48.110;19.838;2023-12-20T06:05:03;45.38;;;19.67;;
70920;SDS011;58572;48.110;19.838;2023-12-20T06:07:31;40.80;;;18.27;;
70920;SDS011;58572;48.110;19.838;2023-12-20T06:09:58;43.08;;;18.83;;
70920;SDS011;58572;48.110;19.838;2023-12-20T06:12:25;47.22;;;17.63;;
70920;SDS011;58572;48.110;19.838;2023-12-20T06:14:54;42.97;;;17.63;;
70920;SDS011;58572;48.110;19.838;2023-12-20T06:17:21;49.60;;;18.67;;
70920;SDS011;58572;48.110;19.838;2023-12-20T06:19:48;41.92;;;18.20;;
70920;SDS011;58572;48.110;19.838;2023-12-20T06:22:16;54.05;;;20.20;;
70920;SDS011;58572;48.110;19.838;2023-12-20T06:24:43;46.25;;;19.20;;
70920;SDS011;58572;48.110;19.838;2023-12-20T06:27:10;46.28;;;18.95;;
70920;SDS011;58572;48.110;19.838;2023-12-20T06:29:37;46.15;;;16.70;;
70920;SDS011;58572;48.110;19.838;2023-12-20T06:32:09;45.85;;;18.55;;
70920;SDS011;58572;48.110;19.838;2023-12-20T06:34:36;43.13;;;17.95;;
70920;SDS011;58572;48.110;19.838;2023-12-20T06:37:04;49.05;;;17.40;;
70920;SDS011;58572;48.110;19.838;2023-12-20T06:39:33;47.42;;;18.05;;
70920;SDS011;58572;48.110;19.838;2023-12-20T06:42:00;50.63;;;18.33;;
70920;SDS011;58572;48.110;19.838;2023-12-20T06:44:27;44.55;;;18.10;;
70920;SDS011;58572;48.110;19.838;2023-12-20T06:46:54;52.33;;;19.13;;
70920;SDS011;58572;48.110;19.838;2023-12-20T06:49:21;49.00;;;16.98;;
70920;SDS011;58572;48.110;19.838;2023-12-20T06:51:48;44.20;;;19.05;;
70920;SDS011;58572;48.110;19.838;2023-12-20T06:54:15;43.03;;;16.70;;
70920;SDS011;58572;48.110;19.838;2023-12-20T06:56:44;40.15;;;16.35;;
70920;SDS011;58572;48.110;19.838;2023-12-20T06:59:11;44.15;;;17.40;;
70920;SDS011;58572;48.110;19.838;2023-12-20T07:01:38;40.67;;;16.30;;
70920;SDS011;58572;48.110;19.838;2023-12-20T07:04:05;40.03;;;16.13;;
70920;SDS011;58572;48.110;19.838;2023-12-20T07:06:32;37.35;;;16.38;;
70920;SDS011;58572;48.110;19.838;2023-12-20T07:08:59;40.08;;;15.15;;
70920;SDS011;58572;48.110;19.838;2023-12-20T07:11:26;43.35;;;15.02;;
70920;SDS011;58572;48.110;19.838;2023-12-20T07:13:55;37.75;;;15.70;;
70920;SDS011;58572;48.110;19.838;2023-12-20T07:16:22;49.17;;;18.17;;
70920;SDS011;58572;48.110;19.838;2023-12-20T07:18:50;41.90;;;15.57;;
70920;SDS011;58572;48.110;19.838;2023-12-20T07:21:17;43.30;;;18.23;;
70920;SDS011;58572;48.110;19.838;2023-12-20T07:23:44;40.35;;;16.40;;
70920;SDS011;58572;48.110;19.838;2023-12-20T07:26:11;49.22;;;19.67;;
70920;SDS011;58572;48.110;19.838;2023-12-20T07:28:39;48.13;;;16.20;;
70920;SDS011;58572;48.110;19.838;2023-12-20T07:31:07;44.25;;;16.02;;
70920;SDS011;58572;48.110;19.838;2023-12-20T07:33:34;42.53;;;16.13;;
70920;SDS011;58572;48.110;19.838;2023-12-20T07:36:02;38.50;;;14.80;;
70920;SDS011;58572;48.110;19.838;2023-12-20T07:38:29;39.60;;;16.23;;
70920;SDS011;58572;48.110;19.838;2023-12-20T07:40:56;44.75;;;17.08;;
70920;SDS011;58572;48.110;19.838;2023-12-20T07:43:23;39.47;;;15.60;;
70920;SDS011;58572;48.110;19.838;2023-12-20T07:45:50;41.50;;;15.52;;
70920;SDS011;58572;48.110;19.838;2023-12-20T07:48:19;39.22;;;15.25;;
70920;SDS011;58572;48.110;19.838;2023-12-20T07:50:46;39.33;;;15.25;;
70920;SDS011;58572;48.110;19.838;2023-12-20T07:53:14;35.35;;;14.48;;
70920;SDS011;58572;48.110;19.838;2023-12-20T07:55:41;39.05;;;17.25;;
70920;SDS011;58572;48.110;19.838;2023-12-20T07:58:08;45.92;;;15.43;;
70920;SDS011;58572;48.110;19.838;2023-12-20T08:00:35;38.70;;;15.55;;
70920;SDS011;58572;48.110;19.838;2023-12-20T08:03:03;35.25;;;14.68;;
70920;SDS011;58572;48.110;19.838;2023-12-20T08:05:32;37.00;;;14.68;;
70920;SDS011;58572;48.110;19.838;2023-12-20T08:07:59;40.17;;;15.90;;
70920;SDS011;58572;48.110;19.838;2023-12-20T08:10:26;38.88;;;15.10;;
70920;SDS011;58572;48.110;19.838;2023-12-20T08:12:55;41.65;;;15.30;;
70920;SDS011;58572;48.110;19.838;2023-12-20T08:15:22;41.78;;;16.23;;
70920;SDS011;58572;48.110;19.838;2023-12-20T08:17:49;39.35;;;15.77;;
70920;SDS011;58572;48.110;19.838;2023-12-20T08:20:17;43.08;;;16.70;;
70920;SDS011;58572;48.110;19.838;2023-12-20T08:22:46;43.72;;;15.55;;
70920;SDS011;58572;48.110;19.838;2023-12-20T08:25:13;36.60;;;15.02;;
70920;SDS011;58572;48.110;19.838;2023-12-20T08:27:40;43.90;;;15.48;;
70920;SDS011;58572;48.110;19.838;2023-12-20T08:30:08;41.60;;;15.82;;
70920;SDS011;58572;48.110;19.838;2023-12-20T08:32:36;41.60;;;17.13;;
70920;SDS011;58572;48.110;19.838;2023-12-20T08:35:03;42.72;;;17.13;;
70920;SDS011;58572;48.110;19.838;2023-12-20T08:37:31;46.53;;;18.50;;
70920;SDS011;58572;48.110;19.838;2023-12-20T08:40:00;50.30;;;19.63;;
70920;SDS011;58572;48.110;19.838;2023-12-20T08:42:27;51.03;;;18.60;;
70920;SDS011;58572;48.110;19.838;2023-12-20T08:44:56;47.88;;;19.40;;
70920;SDS011;58572;48.110;19.838;2023-12-20T08:47:24;76.90;;;28.23;;
70920;SDS011;58572;48.110;19.838;2023-12-20T08:49:51;78.78;;;29.55;;
70920;SDS011;58572;48.110;19.838;2023-12-20T08:52:21;54.88;;;22.42;;
70920;SDS011;58572;48.110;19.838;2023-12-20T08:54:49;57.28;;;21.92;;
70920;SDS011;58572;48.110;19.838;2023-12-20T08:57:19;45.15;;;19.30;;
70920;SDS011;58572;48.110;19.838;2023-12-20T08:59:48;54.28;;;20.77;;
70920;SDS011;58572;48.110;19.838;2023-12-20T09:02:15;54.40;;;23.40;;
70920;SDS011;58572;48.110;19.838;2023-12-20T09:04:43;49.40;;;20.40;;
70920;SDS011;58572;48.110;19.838;2023-12-20T09:07:20;50.85;;;22.25;;
70920;SDS011;58572;48.110;19.838;2023-12-20T09:09:48;53.13;;;22.63;;
70920;SDS011;58572;48.110;19.838;2023-12-20T09:12:15;57.88;;;23.30;;
70920;SDS011;58572;48.110;19.838;2023-12-20T09:14:45;58.92;;;21.27;;
70920;SDS011;58572;48.110;19.838;2023-12-20T09:17:12;69.72;;;28.17;;
70920;SDS011;58572;48.110;19.838;2023-12-20T09:19:39;263.30;;;90.03;;
70920;SDS011;58572;48.110;19.838;2023-12-20T09:22:07;94.45;;;37.72;;
70920;SDS011;58572;48.110;19.838;2023-12-20T09:24:34;95.45;;;32.50;;
70920;SDS011;58572;48.110;19.838;2023-12-20T09:27:01;75.50;;;27.20;;
70920;SDS011;58572;48.110;19.838;2023-12-20T09:29:29;201.15;;;65.07;;
70920;SDS011;58572;48.110;19.838;2023-12-20T09:31:57;145.93;;;51.63;;
70920;SDS011;58572;48.110;19.838;2023-12-20T09:34:24;93.28;;;31.63;;
70920;SDS011;58572;48.110;19.838;2023-12-20T09:36:52;92.88;;;33.85;;
70920;SDS011;58572;48.110;19.838;2023-12-20T09:39:19;100.72;;;39.85;;
70920;SDS011;58572;48.110;19.838;2023-12-20T09:41:49;82.57;;;35.38;;
70920;SDS011;58572;48.110;19.838;2023-12-20T09:44:26;60.50;;;26.33;;
70920;SDS011;58572;48.110;19.838;2023-12-20T09:46:54;57.60;;;24.80;;
70920;SDS011;58572;48.110;19.838;2023-12-20T09:49:24;63.83;;;21.33;;
70920;SDS011;58572;48.110;19.838;2023-12-20T09:51:54;62.28;;;22.35;;
70920;SDS011;58572;48.110;19.838;2023-12-20T09:54:22;65.80;;;23.45;;
70920;SDS011;58572;48.110;19.838;2023-12-20T09:56:50;54.90;;;19.92;;
70920;SDS011;58572;48.110;19.838;2023-12-20T09:59:17;48.38;;;19.98;;
70920;SDS011;58572;48.110;19.838;2023-12-20T10:01:44;47.17;;;19.98;;
70920;SDS011;58572;48.110;19.838;2023-12-20T10:04:12;46.67;;;20.25;;
70920;SDS011;58572;48.110;19.838;2023-12-20T10:06:41;52.22;;;21.27;;
70920;SDS011;58572;48.110;19.838;2023-12-20T10:09:09;47.53;;;19.63;;
70920;SDS011;58572;48.110;19.838;2023-12-20T10:14:04;41.35;;;16.40;;
70920;SDS011;58572;48.110;19.838;2023-12-20T10:16:32;40.80;;;17.27;;
70920;SDS011;58572;48.110;19.838;2023-12-20T10:19:00;48.65;;;18.65;;
70920;SDS011;58572;48.110;19.838;2023-12-20T10:21:27;45.72;;;19.48;;
70920;SDS011;58572;48.110;19.838;2023-12-20T10:23:56;40.58;;;17.50;;
70920;SDS011;58572;48.110;19.838;2023-12-20T10:26:25;44.03;;;18.88;;
70920;SDS011;58572;48.110;19.838;2023-12-20T10:28:53;42.83;;;17.42;;
70920;SDS011;58572;48.110;19.838;2023-12-20T10:31:29;47.92;;;19.83;;
70920;SDS011;58572;48.110;19.838;2023-12-20T10:33:57;34.75;;;15.00;;
70920;SDS011;58572;48.110;19.838;2023-12-20T10:38:53;34.47;;;14.93;;
70920;SDS011;58572;48.110;19.838;2023-12-20T10:41:25;38.17;;;16.42;;
70920;SDS011;58572;48.110;19.838;2023-12-20T10:43:56;36.40;;;14.70;;
70920;SDS011;58572;48.110;19.838;2023-12-20T10:46:26;34.10;;;16.13;;
70920;SDS011;58572;48.110;19.838;2023-12-20T10:48:53;37.63;;;17.13;;
70920;SDS011;58572;48.110;19.838;2023-12-20T10:51:22;38.28;;;16.90;;
70920;SDS011;58572;48.110;19.838;2023-12-20T10:53:54;36.03;;;16.27;;
70920;SDS011;58572;48.110;19.838;2023-12-20T10:56:29;38.92;;;17.90;;
70920;SDS011;58572;48.110;19.838;2023-12-20T10:59:04;54.05;;;24.48;;
70920;SDS011;58572;48.110;19.838;2023-12-20T11:01:38;50.58;;;23.23;;
70920;SDS011;58572;48.110;19.838;2023-12-20T11:04:12;43.78;;;19.02;;
70920;SDS011;58572;48.110;19.838;2023-12-20T11:06:51;46.28;;;21.83;;
70920;SDS011;58572;48.110;19.838;2023-12-20T11:09:25;65.80;;;28.80;;
70920;SDS011;58572;48.110;19.838;2023-12-20T11:12:13;47.72;;;19.75;;
70920;SDS011;58572;48.110;19.838;2023-12-20T11:14:46;169.43;;;75.10;;
70920;SDS011;58572;48.110;19.838;2023-12-20T11:17:19;191.45;;;84.65;;
70920;SDS011;58572;48.110;19.838;2023-12-20T11:20:08;126.35;;;57.33;;
70920;SDS011;58572;48.110;19.838;2023-12-20T11:22:40;55.83;;;25.77;;
70920;SDS011;58572;48.110;19.838;2023-12-20T11:25:23;54.72;;;23.23;;
70920;SDS011;58572;48.110;19.838;2023-12-20T11:28:11;49.13;;;20.92;;
70920;SDS011;58572;48.110;19.838;2023-12-20T11:30:47;46.72;;;19.80;;
70920;SDS011;58572;48.110;19.838;2023-12-20T11:33:22;35.40;;;16.27;;
70920;SDS011;58572;48.110;19.838;2023-12-20T11:35:50;31.30;;;15.48;;
70920;SDS011;58572;48.110;19.838;2023-12-20T11:38:19;31.67;;;15.27;;
70920;SDS011;58572;48.110;19.838;2023-12-20T11:40:48;27.02;;;12.88;;
70920;SDS011;58572;48.110;19.838;2023-12-20T11:46:04;36.35;;;17.45;;
70920;SDS011;58572;48.110;19.838;2023-12-20T11:48:34;32.28;;;14.00;;
70920;SDS011;58572;48.110;19.838;2023-12-20T11:51:02;34.35;;;15.95;;
70920;SDS011;58572;48.110;19.838;2023-12-20T11:53:35;23.38;;;12.70;;
70920;SDS011;58572;48.110;19.838;2023-12-20T11:56:03;21.45;;;9.35;;
70920;SDS011;58572;48.110;19.838;2023-12-20T11:58:33;31.08;;;13.80;;
70920;SDS011;58572;48.110;19.838;2023-12-20T12:01:00;26.88;;;12.45;;
70920;SDS011;58572;48.110;19.838;2023-12-20T12:03:29;34.80;;;15.50;;
70920;SDS011;58572;48.110;19.838;2023-12-20T12:05:57;27.85;;;14.25;;
70920;SDS011;58572;48.110;19.838;2023-12-20T12:08:26;35.90;;;16.98;;
70920;SDS011;58572;48.110;19.838;2023-12-20T12:10:53;32.72;;;14.48;;
70920;SDS011;58572;48.110;19.838;2023-12-20T12:13:20;32.30;;;14.25;;
70920;SDS011;58572;48.110;19.838;2023-12-20T12:15:49;28.27;;;13.90;;
70920;SDS011;58572;48.110;19.838;2023-12-20T12:18:16;30.60;;;15.05;;
70920;SDS011;58572;48.110;19.838;2023-12-20T12:20:44;34.00;;;16.42;;
70920;SDS011;58572;48.110;19.838;2023-12-20T12:23:11;31.35;;;14.00;;
70920;SDS011;58572;48.110;19.838;2023-12-20T12:25:39;31.65;;;15.50;;
70920;SDS011;58572;48.110;19.838;2023-12-20T12:28:06;31.17;;;15.35;;
70920;SDS011;58572;48.110;19.838;2023-12-20T12:30:33;33.70;;;15.43;;
70920;SDS011;58572;48.110;19.838;2023-12-20T12:33:02;26.25;;;14.13;;
70920;SDS011;58572;48.110;19.838;2023-12-20T12:35:30;29.90;;;14.82;;
70920;SDS011;58572;48.110;19.838;2023-12-20T12:37:58;33.05;;;14.68;;
70920;SDS011;58572;48.110;19.838;2023-12-20T12:40:28;30.80;;;14.85;;
70920;SDS011;58572;48.110;19.838;2023-12-20T12:42:55;30.80;;;14.02;;
70920;SDS011;58572;48.110;19.838;2023-12-20T12:45:22;41.75;;;23.20;;
70920;SDS011;58572;48.110;19.838;2023-12-20T12:47:50;35.90;;;17.92;;
70920;SDS011;58572;48.110;19.838;2023-12-20T12:50:21;32.78;;;16.08;;
70920;SDS011;58572;48.110;19.838;2023-12-20T12:52:49;29.38;;;15.13;;
70920;SDS011;58572;48.110;19.838;2023-12-20T12:55:16;26.52;;;13.68;;
70920;SDS011;58572;48.110;19.838;2023-12-20T12:57:43;32.60;;;14.80;;
70920;SDS011;58572;48.110;19.838;2023-12-20T13:00:11;48.92;;;29.45;;
70920;SDS011;58572;48.110;19.838;2023-12-20T13:02:39;37.95;;;19.35;;
70920;SDS011;58572;48.110;19.838;2023-12-20T13:05:07;33.00;;;17.90;;
70920;SDS011;58572;48.110;19.838;2023-12-20T13:07:36;31.65;;;16.15;;
70920;SDS011;58572;48.110;19.838;2023-12-20T13:10:04;34.15;;;17.95;;
70920;SDS011;58572;48.110;19.838;2023-12-20T13:12:32;33.22;;;16.25;;
70920;SDS011;58572;48.110;19.838;2023-12-20T13:14:59;29.75;;;16.42;;
70920;SDS011;58572;48.110;19.838;2023-12-20T13:17:29;33.17;;;16.33;;
70920;SDS011;58572;48.110;19.838;2023-12-20T13:19:56;34.55;;;16.60;;
70920;SDS011;58572;48.110;19.838;2023-12-20T13:22:25;32.08;;;16.80;;
70920;SDS011;58572;48.110;19.838;2023-12-20T13:24:53;28.92;;;14.73;;
70920;SDS011;58572;48.110;19.838;2023-12-20T13:27:21;56.67;;;27.40;;
70920;SDS011;58572;48.110;19.838;2023-12-20T13:29:49;35.58;;;18.25;;
70920;SDS011;58572;48.110;19.838;2023-12-20T13:32:16;45.33;;;23.10;;
70920;SDS011;58572;48.110;19.838;2023-12-20T13:34:45;38.58;;;19.42;;
70920;SDS011;58572;48.110;19.838;2023-12-20T13:37:12;43.05;;;22.58;;
70920;SDS011;58572;48.110;19.838;2023-12-20T13:39:39;31.48;;;16.40;;
70920;SDS011;58572;48.110;19.838;2023-12-20T13:42:08;27.80;;;16.00;;
70920;SDS011;58572;48.110;19.838;2023-12-20T13:44:36;31.13;;;14.55;;
70920;SDS011;58572;48.110;19.838;2023-12-20T13:47:03;30.10;;;15.90;;
70920;SDS011;58572;48.110;19.838;2023-12-20T13:49:31;36.15;;;17.00;;
70920;SDS011;58572;48.110;19.838;2023-12-20T13:51:58;30.15;;;15.30;;
70920;SDS011;58572;48.110;19.838;2023-12-20T13:54:26;26.00;;;13.82;;
70920;SDS011;58572;48.110;19.838;2023-12-20T13:56:53;30.70;;;14.57;;
70920;SDS011;58572;48.110;19.838;2023-12-20T13:59:22;34.55;;;17.00;;
70920;SDS011;58572;48.110;19.838;2023-12-20T14:01:49;34.95;;;16.35;;
70920;SDS011;58572;48.110;19.838;2023-12-20T14:04:16;30.45;;;16.08;;
70920;SDS011;58572;48.110;19.838;2023-12-20T14:06:44;42.05;;;21.50;;
70920;SDS011;58572;48.110;19.838;2023-12-20T14:09:11;32.53;;;17.05;;
70920;SDS011;58572;48.110;19.838;2023-12-20T14:11:40;44.85;;;23.20;;
70920;SDS011;58572;48.110;19.838;2023-12-20T14:14:08;34.25;;;17.25;;
70920;SDS011;58572;48.110;19.838;2023-12-20T14:16:36;53.67;;;25.77;;
70920;SDS011;58572;48.110;19.838;2023-12-20T14:19:04;31.15;;;16.50;;
70920;SDS011;58572;48.110;19.838;2023-12-20T14:21:32;39.00;;;19.33;;
70920;SDS011;58572;48.110;19.838;2023-12-20T14:24:00;51.92;;;24.10;;
70920;SDS011;58572;48.110;19.838;2023-12-20T14:26:27;49.80;;;24.90;;